Time;durP1;ratioP1;P1;durP2;ratioP2;P2;SDS_P1;SDS_P2;PMS_P1;PMS_P2;Temp;Humidity;BMP_temperature;BMP_pressure;BME280_temperature;BME280_humidity;BME280_pressure;Samples;Min_cycle;Max_cycle;Signal;HPM_P1;HPM_P2
2022/01/26 00:05:46;;;;;;;71.13;25.38;;;;;;;;;;4979558;28;20054;-79
2022/01/26 00:06:31;;;;;;;57.45;22.30;;;;;;;;;;4957553;28;20082;-77
2022/01/26 00:08:58;;;;;;;60.88;22.15;;;;;;;;;;4990375;28;20057;-77
2022/01/26 00:11:27;;;;;;;56.00;22.42;;;;;;;;;;4986151;28;20057;-78
2022/01/26 00:13:54;;;;;;;56.33;22.55;;;;;;;;;;4981262;28;20565;-77
2022/01/26 00:16:26;;;;;;;54.70;22.00;;;;;;;;;;4975421;28;20065;-77
2022/01/26 00:18:57;;;;;;;58.88;22.38;;;;;;;;;;4975160;28;20089;-77
2022/01/26 00:21:32;;;;;;;62.90;24.08;;;;;;;;;;4975258;28;20082;-76
2022/01/26 00:27:09;;;;;;;63.33;23.38;;;;;;;;;;4950577;28;20151;-76
2022/01/26 00:29:39;;;;;;;57.88;22.30;;;;;;;;;;4975345;28;20573;-77
2022/01/26 00:40:30;;;;;;;56.22;21.33;;;;;;;;;;4984512;28;20410;-78
2022/01/26 00:43:03;;;;;;;58.42;22.35;;;;;;;;;;4984590;28;20141;-78
2022/01/26 00:45:35;;;;;;;54.92;23.23;;;;;;;;;;4983603;28;20043;-79
2022/01/26 00:48:07;;;;;;;66.63;23.73;;;;;;;;;;4983811;28;20070;-78
2022/01/26 00:50:34;;;;;;;55.42;21.50;;;;;;;;;;4981599;28;20055;-79
2022/01/26 00:53:02;;;;;;;61.25;22.88;;;;;;;;;;4981942;28;20062;-78
2022/01/26 00:55:29;;;;;;;66.45;24.33;;;;;;;;;;4982628;28;20110;-79
2022/01/26 00:57:56;;;;;;;62.70;22.75;;;;;;;;;;4981308;28;20042;-78
2022/01/26 01:00:25;;;;;;;56.42;22.05;;;;;;;;;;4982321;28;20054;-77
2022/01/26 01:02:54;;;;;;;54.22;21.95;;;;;;;;;;4981617;28;20054;-78
2022/01/26 01:05:27;;;;;;;55.50;22.67;;;;;;;;;;4981926;28;20051;-79
2022/01/26 01:08:00;;;;;;;59.42;21.90;;;;;;;;;;4981524;28;20569;-79
2022/01/26 01:10:27;;;;;;;54.95;23.50;;;;;;;;;;4981658;28;20089;-78
2022/01/26 01:12:57;;;;;;;62.25;24.08;;;;;;;;;;4981887;28;20051;-77
2022/01/26 01:15:25;;;;;;;56.72;22.20;;;;;;;;;;4982283;28;20570;-77
2022/01/26 01:17:57;;;;;;;63.17;23.58;;;;;;;;;;4981192;28;20061;-78
2022/01/26 01:20:42;;;;;;;56.80;21.75;;;;;;;;;;4982178;28;20062;-78
2022/01/26 01:23:30;;;;;;;61.05;22.48;;;;;;;;;;4981568;28;20428;-79
2022/01/26 01:26:23;;;;;;;60.00;23.85;;;;;;;;;;4982347;28;20046;-78
2022/01/26 01:29:09;;;;;;;60.85;22.23;;;;;;;;;;4982928;28;20051;-78
2022/01/26 01:31:46;;;;;;;63.40;22.90;;;;;;;;;;4983134;28;20135;-79
2022/01/26 01:34:17;;;;;;;56.00;22.67;;;;;;;;;;4982765;28;20588;-78
2022/01/26 01:36:49;;;;;;;;;;;;;;;;;;4990255;28;20051;-77
2022/01/26 01:39:16;;;;;;;56.60;21.45;;;;;;;;;;4988316;28;19945;-79
2022/01/26 01:41:45;;;;;;;50.20;20.15;;;;;;;;;;4987331;28;20050;-78
2022/01/26 01:44:13;;;;;;;62.03;22.77;;;;;;;;;;4983549;28;20418;-79
2022/01/26 01:46:41;;;;;;;52.85;21.45;;;;;;;;;;4982277;28;20070;-78
2022/01/26 01:49:11;;;;;;;56.00;20.75;;;;;;;;;;5018963;23;20050;-64
2022/01/26 01:51:41;;;;;;;54.35;21.73;;;;;;;;;;5012782;28;20131;-64
2022/01/26 01:54:14;;;;;;;58.47;22.25;;;;;;;;;;5012666;28;20092;-64
2022/01/26 01:56:42;;;;;;;55.45;20.55;;;;;;;;;;5012026;28;20046;-65
2022/01/26 01:59:09;;;;;;;56.70;21.27;;;;;;;;;;5011457;28;20129;-64
2022/01/26 02:01:37;;;;;;;55.95;21.67;;;;;;;;;;5012318;28;20048;-64
2022/01/26 02:04:04;;;;;;;61.65;22.92;;;;;;;;;;5012254;28;20049;-64
2022/01/26 02:06:31;;;;;;;60.85;22.48;;;;;;;;;;5012198;28;20057;-65
2022/01/26 02:08:58;;;;;;;55.05;21.95;;;;;;;;;;5012204;28;20052;-64
2022/01/26 02:11:26;;;;;;;53.65;21.00;;;;;;;;;;5012333;28;20049;-64
2022/01/26 02:14:00;;;;;;;53.70;20.65;;;;;;;;;;5012221;28;20054;-64
2022/01/26 02:16:33;;;;;;;52.92;20.45;;;;;;;;;;5012203;28;20050;-64
2022/01/26 02:49:42;;;;;;;48.63;19.35;;;;;;;;;;4973644;28;20086;-64
2022/01/26 02:52:24;;;;;;;48.00;19.73;;;;;;;;;;5011921;28;20050;-64
2022/01/26 02:57:48;;;;;;;52.30;20.75;;;;;;;;;;5009941;28;20096;-64
2022/01/26 03:00:19;;;;;;;54.58;21.40;;;;;;;;;;5011571;28;20050;-64
2022/01/26 03:02:51;;;;;;;53.33;20.58;;;;;;;;;;5011863;28;20050;-64
2022/01/26 03:05:21;;;;;;;47.50;18.90;;;;;;;;;;5011555;28;20049;-64
2022/01/26 03:07:53;;;;;;;52.15;20.73;;;;;;;;;;5011406;28;20060;-64
2022/01/26 03:10:30;;;;;;;48.28;19.52;;;;;;;;;;5014200;28;20050;-64
2022/01/26 03:13:01;;;;;;;47.33;19.27;;;;;;;;;;5015068;28;20050;-64
2022/01/26 03:15:32;;;;;;;;;;;;;;;;;;5015429;28;20056;-64
2022/01/26 03:20:54;;;;;;;44.80;19.73;;;;;;;;;;4990691;28;20052;-63
2022/01/26 03:29:09;;;;;;;48.20;19.60;;;;;;;;;;5014821;28;20061;-64
2022/01/26 03:32:37;;;;;;;50.60;20.30;;;;;;;;;;5015025;28;20065;-64
2022/01/26 03:34:54;;;;;;;47.42;19.08;;;;;;;;;;5014506;28;20054;-64
2022/01/26 03:37:26;;;;;;;49.60;19.08;;;;;;;;;;5014563;28;20058;-64
2022/01/26 03:39:53;;;;;;;52.40;20.70;;;;;;;;;;5014617;28;20053;-64
2022/01/26 03:42:22;;;;;;;50.75;20.33;;;;;;;;;;5014668;28;20054;-64
2022/01/26 03:44:49;;;;;;;52.60;20.92;;;;;;;;;;5014683;28;20080;-64
2022/01/26 03:47:16;;;;;;;47.45;18.75;;;;;;;;;;5014520;28;20463;-64
2022/01/26 03:49:43;;;;;;;48.90;18.50;;;;;;;;;;5014703;28;20517;-64
2022/01/26 03:52:11;;;;;;;46.10;19.00;;;;;;;;;;5014557;28;20068;-64
2022/01/26 03:54:39;;;;;;;47.10;20.40;;;;;;;;;;5014511;28;20046;-66
2022/01/26 03:57:06;;;;;;;50.85;19.70;;;;;;;;;;5013873;28;20045;-66
2022/01/26 03:59:34;;;;;;;58.20;21.20;;;;;;;;;;5014501;28;20052;-66
2022/01/26 04:02:01;;;;;;;49.00;19.08;;;;;;;;;;5014183;28;20045;-66
2022/01/26 04:04:32;;;;;;;48.08;20.35;;;;;;;;;;5014160;28;20184;-65
2022/01/26 04:07:01;;;;;;;48.95;21.00;;;;;;;;;;5013864;28;20079;-66
2022/01/26 04:09:28;;;;;;;52.67;20.67;;;;;;;;;;5014304;28;20049;-65
2022/01/26 04:11:55;;;;;;;47.22;19.00;;;;;;;;;;5014334;28;20046;-65
2022/01/26 04:14:27;;;;;;;50.42;20.00;;;;;;;;;;5014288;28;20089;-65
2022/01/26 04:16:55;;;;;;;49.28;18.42;;;;;;;;;;5013663;28;20056;-64
2022/01/26 04:19:23;;;;;;;48.72;19.77;;;;;;;;;;5014170;28;20054;-63
2022/01/26 04:22:03;;;;;;;52.90;21.90;;;;;;;;;;5012973;28;20057;-64
2022/01/26 04:24:35;;;;;;;48.70;20.98;;;;;;;;;;5014090;28;20081;-64
2022/01/26 04:27:07;;;;;;;50.08;20.98;;;;;;;;;;5013621;28;20065;-64
2022/01/26 04:29:35;;;;;;;50.45;20.63;;;;;;;;;;5013697;28;20573;-64
2022/01/26 04:32:06;;;;;;;49.83;21.15;;;;;;;;;;5013850;28;20060;-64
2022/01/26 04:34:34;;;;;;;51.55;20.42;;;;;;;;;;5014160;28;20107;-64
2022/01/26 04:37:09;;;;;;;49.65;20.52;;;;;;;;;;5013267;28;20388;-65
2022/01/26 04:39:42;;;;;;;52.20;20.60;;;;;;;;;;5014126;28;20617;-64
2022/01/26 04:42:13;;;;;;;55.80;20.92;;;;;;;;;;5013617;28;20515;-65
2022/01/26 04:44:45;;;;;;;47.70;18.50;;;;;;;;;;5013536;28;20135;-65
2022/01/26 04:47:14;;;;;;;51.17;20.35;;;;;;;;;;5013551;28;20053;-65
2022/01/26 04:49:41;;;;;;;49.47;20.02;;;;;;;;;;5013311;28;20081;-64
2022/01/26 04:52:08;;;;;;;44.60;18.88;;;;;;;;;;5013294;28;20252;-65
2022/01/26 04:54:35;;;;;;;51.85;21.40;;;;;;;;;;5013295;28;20052;-65
2022/01/26 04:57:02;;;;;;;53.85;20.55;;;;;;;;;;5012963;28;20472;-65
2022/01/26 04:59:29;;;;;;;50.03;20.60;;;;;;;;;;5013049;28;20128;-65
2022/01/26 05:01:56;;;;;;;48.88;19.60;;;;;;;;;;5013082;28;20048;-65
2022/01/26 05:04:24;;;;;;;50.40;20.95;;;;;;;;;;5013270;28;20064;-64
2022/01/26 05:06:51;;;;;;;50.05;20.65;;;;;;;;;;5012730;28;20052;-65
2022/01/26 05:09:19;;;;;;;50.53;20.35;;;;;;;;;;5012888;28;20056;-65
2022/01/26 05:11:49;;;;;;;49.40;20.75;;;;;;;;;;5013092;28;20049;-64
2022/01/26 05:14:16;;;;;;;52.45;20.02;;;;;;;;;;5012980;28;20100;-65
2022/01/26 05:16:43;;;;;;;53.47;22.38;;;;;;;;;;5012681;28;20050;-64
2022/01/26 05:19:10;;;;;;;50.63;20.20;;;;;;;;;;5012787;28;20175;-65
2022/01/26 05:21:38;;;;;;;48.72;20.42;;;;;;;;;;5012916;28;20128;-66
2022/01/26 05:24:06;;;;;;;50.20;20.30;;;;;;;;;;5013266;28;20115;-64
2022/01/26 05:26:34;;;;;;;56.78;20.42;;;;;;;;;;5012727;28;20055;-65
2022/01/26 05:29:01;;;;;;;54.40;21.15;;;;;;;;;;5012688;28;20060;-64
2022/01/26 05:31:28;;;;;;;52.20;22.48;;;;;;;;;;5012665;28;20048;-64
2022/01/26 05:33:55;;;;;;;48.28;20.02;;;;;;;;;;5012587;28;20046;-65
2022/01/26 05:36:22;;;;;;;49.83;21.65;;;;;;;;;;5012806;28;20057;-65
2022/01/26 05:38:50;;;;;;;52.90;22.05;;;;;;;;;;5012677;28;20060;-64
2022/01/26 05:41:17;;;;;;;59.95;23.13;;;;;;;;;;5012678;28;20050;-66
2022/01/26 05:43:44;;;;;;;50.17;21.15;;;;;;;;;;5012524;28;20493;-66
2022/01/26 05:46:15;;;;;;;54.60;21.13;;;;;;;;;;5012713;28;20108;-66
2022/01/26 05:48:45;;;;;;;53.20;22.05;;;;;;;;;;5012446;28;20430;-63
2022/01/26 05:51:12;;;;;;;45.67;20.10;;;;;;;;;;5012649;28;20050;-64
2022/01/26 05:53:40;;;;;;;52.67;20.83;;;;;;;;;;5012444;28;20124;-64
2022/01/26 05:56:09;;;;;;;47.60;20.33;;;;;;;;;;5012576;28;20144;-66
2022/01/26 05:58:36;;;;;;;49.60;20.45;;;;;;;;;;5012192;28;20487;-66
2022/01/26 06:01:05;;;;;;;43.75;19.30;;;;;;;;;;5012438;28;20410;-66
2022/01/26 06:03:32;;;;;;;43.35;18.13;;;;;;;;;;5012637;28;20046;-65
2022/01/26 06:05:59;;;;;;;53.97;21.13;;;;;;;;;;5012682;28;20399;-64
2022/01/26 06:08:27;;;;;;;50.55;20.05;;;;;;;;;;5011877;28;20056;-64
2022/01/26 06:10:55;;;;;;;52.70;20.70;;;;;;;;;;5012495;28;20054;-65
2022/01/26 06:13:24;;;;;;;46.58;19.08;;;;;;;;;;5013044;28;20053;-66
2022/01/26 06:15:51;;;;;;;52.95;20.73;;;;;;;;;;5012298;28;20064;-66
2022/01/26 06:18:18;;;;;;;45.97;18.95;;;;;;;;;;5011972;28;20096;-65
2022/01/26 06:20:46;;;;;;;47.38;18.98;;;;;;;;;;5012437;28;20054;-65
2022/01/26 06:23:13;;;;;;;43.38;20.35;;;;;;;;;;5012202;28;20133;-64
2022/01/26 06:25:40;;;;;;;44.05;19.20;;;;;;;;;;5012189;28;20049;-66
2022/01/26 06:28:11;;;;;;;48.22;19.55;;;;;;;;;;5012052;28;20050;-65
2022/01/26 06:30:40;;;;;;;;;;;;;;;;;;5013066;28;20050;-65
2022/01/26 06:33:08;;;;;;;39.92;16.73;;;;;;;;;;5012661;28;20333;-67
2022/01/26 06:35:36;;;;;;;45.25;18.88;;;;;;;;;;5012190;28;20042;-65
2022/01/26 06:38:04;;;;;;;42.38;16.73;;;;;;;;;;5012397;28;20104;-65
2022/01/26 06:40:31;;;;;;;36.15;16.55;;;;;;;;;;5012137;28;20046;-65
2022/01/26 06:43:01;;;;;;;37.53;15.88;;;;;;;;;;5012353;28;20071;-65
2022/01/26 06:45:32;;;;;;;43.80;17.40;;;;;;;;;;5015550;28;20049;-65
2022/01/26 06:48:26;;;;;;;39.65;16.77;;;;;;;;;;5015837;28;20517;-65
2022/01/26 06:50:54;;;;;;;37.15;16.25;;;;;;;;;;5015892;28;20049;-65
2022/01/26 06:53:21;;;;;;;31.33;15.30;;;;;;;;;;5016091;28;20057;-66
2022/01/26 06:55:48;;;;;;;37.78;16.17;;;;;;;;;;5016086;28;20105;-66
2022/01/26 06:58:15;;;;;;;34.67;15.85;;;;;;;;;;5015546;28;20050;-65
2022/01/26 07:00:43;;;;;;;33.22;15.77;;;;;;;;;;5016005;28;20076;-65
2022/01/26 07:03:12;;;;;;;36.90;16.45;;;;;;;;;;5015848;28;20050;-65
2022/01/26 07:05:39;;;;;;;35.85;17.42;;;;;;;;;;5015735;28;20133;-65
2022/01/26 07:08:06;;;;;;;38.25;17.38;;;;;;;;;;5015919;28;20073;-65
2022/01/26 07:10:34;;;;;;;40.58;17.67;;;;;;;;;;5015549;28;20052;-66
2022/01/26 07:13:02;;;;;;;39.78;18.33;;;;;;;;;;5015658;28;20046;-66
2022/01/26 07:21:23;;;;;;;38.03;17.17;;;;;;;;;;5015656;28;20140;-65
2022/01/26 07:23:51;;;;;;;37.17;16.15;;;;;;;;;;5015646;28;20057;-64
2022/01/26 07:26:18;;;;;;;41.25;16.77;;;;;;;;;;5015261;28;20111;-65
2022/01/26 07:28:45;;;;;;;38.65;17.33;;;;;;;;;;5014937;28;20052;-65
2022/01/26 07:31:13;;;;;;;39.00;17.02;;;;;;;;;;5015385;28;20486;-65
2022/01/26 07:33:43;;;;;;;36.28;16.45;;;;;;;;;;5015327;28;20041;-66
2022/01/26 07:36:10;;;;;;;38.20;18.55;;;;;;;;;;5015650;28;20046;-65
2022/01/26 07:38:38;;;;;;;36.53;16.23;;;;;;;;;;5015696;28;20126;-66
2022/01/26 07:41:05;;;;;;;36.13;17.15;;;;;;;;;;5015324;28;20046;-66
2022/01/26 07:43:34;;;;;;;33.78;16.45;;;;;;;;;;5015806;28;20163;-65
2022/01/26 07:46:02;;;;;;;37.22;16.98;;;;;;;;;;5015485;28;20050;-65
2022/01/26 07:48:29;;;;;;;35.33;16.23;;;;;;;;;;5015156;28;20414;-65
2022/01/26 07:50:58;;;;;;;33.22;14.80;;;;;;;;;;5015388;28;20084;-65
2022/01/26 07:53:25;;;;;;;34.53;17.40;;;;;;;;;;5015004;28;20049;-65
2022/01/26 07:55:52;;;;;;;30.90;16.30;;;;;;;;;;5014934;28;20072;-66
2022/01/26 07:58:20;;;;;;;32.63;15.70;;;;;;;;;;5013422;23;20135;-65
2022/01/26 08:00:47;;;;;;;34.97;17.35;;;;;;;;;;4975574;28;20057;-65
2022/01/26 08:03:15;;;;;;;35.47;15.82;;;;;;;;;;4976018;28;20065;-66
2022/01/26 08:05:42;;;;;;;33.80;17.02;;;;;;;;;;4975369;28;20495;-66
2022/01/26 08:08:10;;;;;;;33.38;16.50;;;;;;;;;;4972679;28;20062;-65
2022/01/26 08:10:38;;;;;;;38.72;17.77;;;;;;;;;;4976577;28;20046;-65
2022/01/26 08:13:05;;;;;;;31.42;15.98;;;;;;;;;;4981897;28;20055;-65
2022/01/26 08:15:32;;;;;;;34.45;16.20;;;;;;;;;;4973494;28;20050;-65
2022/01/26 08:18:02;;;;;;;32.72;15.75;;;;;;;;;;4972849;28;20279;-66
2022/01/26 08:20:29;;;;;;;34.45;15.85;;;;;;;;;;4973239;28;20125;-66
2022/01/26 08:22:57;;;;;;;31.95;16.02;;;;;;;;;;4972753;28;20039;-65
2022/01/26 08:25:28;;;;;;;35.78;16.15;;;;;;;;;;4973482;28;20065;-68
2022/01/26 08:28:01;;;;;;;32.45;15.05;;;;;;;;;;4972807;28;20054;-66
2022/01/26 08:30:28;;;;;;;33.65;15.57;;;;;;;;;;4973411;28;20519;-66
2022/01/26 08:32:55;;;;;;;30.90;15.90;;;;;;;;;;4972697;28;20090;-67
2022/01/26 08:35:23;;;;;;;34.00;16.15;;;;;;;;;;4974515;28;20051;-67
2022/01/26 08:37:50;;;;;;;32.13;15.05;;;;;;;;;;4972370;28;20532;-67
2022/01/26 08:40:17;;;;;;;31.13;14.35;;;;;;;;;;4972428;28;20050;-67
2022/01/26 08:42:45;;;;;;;34.15;16.42;;;;;;;;;;4972524;28;20065;-67
2022/01/26 08:45:12;;;;;;;31.38;15.15;;;;;;;;;;4973372;28;20344;-67
2022/01/26 08:47:39;;;;;;;33.92;15.77;;;;;;;;;;4962384;28;20058;-67
2022/01/26 08:50:08;;;;;;;33.13;15.88;;;;;;;;;;4953252;28;20051;-67
2022/01/26 08:52:35;;;;;;;33.70;17.45;;;;;;;;;;4952892;28;20483;-67
2022/01/26 08:55:03;;;;;;;35.42;17.60;;;;;;;;;;4953222;28;20456;-67
2022/01/26 08:57:30;;;;;;;36.85;15.70;;;;;;;;;;4952862;28;20051;-67
2022/01/26 09:00:00;;;;;;;34.80;15.98;;;;;;;;;;4953456;28;20450;-66
2022/01/26 09:02:27;;;;;;;31.35;16.10;;;;;;;;;;4952561;28;20059;-67
2022/01/26 09:04:54;;;;;;;33.38;16.42;;;;;;;;;;4952833;28;20059;-69
2022/01/26 09:07:21;;;;;;;34.17;17.40;;;;;;;;;;4952134;28;20403;-70
2022/01/26 09:09:48;;;;;;;35.83;16.48;;;;;;;;;;4952483;28;20271;-72
2022/01/26 09:12:19;;;;;;;34.00;16.63;;;;;;;;;;4952844;28;20236;-73
2022/01/26 09:14:47;;;;;;;;;;;;;;;;;;4953222;28;20063;-67
2022/01/26 09:17:15;;;;;;;34.65;15.55;;;;;;;;;;4952996;28;20398;-66
2022/01/26 09:19:44;;;;;;;34.67;16.20;;;;;;;;;;4953195;28;20057;-66
2022/01/26 09:22:14;;;;;;;35.88;16.75;;;;;;;;;;4952714;28;20090;-67
2022/01/26 09:24:42;;;;;;;33.05;16.23;;;;;;;;;;4952886;28;20408;-67
2022/01/26 09:27:12;;;;;;;33.58;17.63;;;;;;;;;;4952852;28;20493;-67
2022/01/26 09:29:39;;;;;;;35.90;16.60;;;;;;;;;;4953377;28;20055;-67
2022/01/26 09:32:07;;;;;;;33.35;17.08;;;;;;;;;;4952905;28;20047;-66
2022/01/26 09:34:37;;;;;;;32.50;16.15;;;;;;;;;;4952800;28;20053;-66
2022/01/26 09:37:05;;;;;;;35.38;16.75;;;;;;;;;;4952330;28;20062;-68
2022/01/26 09:39:33;;;;;;;36.00;16.60;;;;;;;;;;4952519;28;20061;-67
2022/01/26 09:42:01;;;;;;;30.92;16.42;;;;;;;;;;4952704;28;20054;-67
2022/01/26 09:44:30;;;;;;;33.65;16.45;;;;;;;;;;4952504;28;20055;-67
2022/01/26 09:46:58;;;;;;;37.47;16.48;;;;;;;;;;4952436;28;20047;-67
2022/01/26 09:49:31;;;;;;;34.15;17.05;;;;;;;;;;4952565;28;20372;-67
2022/01/26 09:52:02;;;;;;;30.13;14.95;;;;;;;;;;4952789;28;20143;-67
2022/01/26 09:54:31;;;;;;;32.15;17.27;;;;;;;;;;4953136;28;20379;-67
2022/01/26 09:57:03;;;;;;;29.08;14.82;;;;;;;;;;4952735;28;20051;-67
2022/01/26 09:59:30;;;;;;;31.67;15.75;;;;;;;;;;4952695;28;20055;-67
2022/01/26 10:01:58;;;;;;;32.25;16.52;;;;;;;;;;4952695;28;20047;-68
2022/01/26 10:04:28;;;;;;;33.80;16.58;;;;;;;;;;4952813;28;20051;-67
2022/01/26 10:07:15;;;;;;;35.45;18.60;;;;;;;;;;4952550;28;20066;-67
2022/01/26 10:09:52;;;;;;;32.83;16.13;;;;;;;;;;4952645;28;20063;-66
2022/01/26 10:17:49;;;;;;;31.63;15.60;;;;;;;;;;4950650;28;20051;-67
2022/01/26 10:20:17;;;;;;;36.33;17.55;;;;;;;;;;4955758;28;20059;-67
2022/01/26 10:22:46;;;;;;;34.17;16.45;;;;;;;;;;4956819;28;20059;-67
2022/01/26 10:25:15;;;;;;;31.15;16.67;;;;;;;;;;4956143;28;20047;-67
2022/01/26 10:27:44;;;;;;;35.20;16.83;;;;;;;;;;4955699;28;20058;-67
2022/01/26 10:30:14;;;;;;;33.70;16.33;;;;;;;;;;4956342;28;20059;-67
2022/01/26 10:32:45;;;;;;;32.93;17.43;;;;;;;;;;4971338;28;20072;-67
2022/01/26 10:35:14;;;;;;;38.17;19.27;;;;;;;;;;4994950;28;20096;-67
2022/01/26 10:37:48;;;;;;;32.00;17.15;;;;;;;;;;4994226;28;20061;-67
2022/01/26 10:40:21;;;;;;;38.38;17.60;;;;;;;;;;4994851;28;20050;-66
2022/01/26 10:43:01;;;;;;;36.53;16.75;;;;;;;;;;4995728;28;20197;-67
2022/01/26 10:45:47;;;;;;;36.50;17.73;;;;;;;;;;4994856;28;20054;-67
2022/01/26 10:48:22;;;;;;;35.08;17.17;;;;;;;;;;4994933;28;20495;-67
2022/01/26 10:51:21;;;;;;;33.15;18.15;;;;;;;;;;4994613;28;20062;-67
2022/01/26 10:53:50;;;;;;;35.50;17.70;;;;;;;;;;4994570;28;20057;-67
2022/01/26 10:56:18;;;;;;;36.92;17.58;;;;;;;;;;4994423;28;20058;-67
2022/01/26 10:58:46;;;;;;;33.97;16.73;;;;;;;;;;4993732;28;20065;-67
2022/01/26 11:01:13;;;;;;;33.40;17.13;;;;;;;;;;4994495;28;20129;-67
2022/01/26 11:03:40;;;;;;;32.25;16.95;;;;;;;;;;4994812;28;20064;-67
2022/01/26 11:06:08;;;;;;;30.50;17.00;;;;;;;;;;4994203;28;20058;-67
2022/01/26 11:08:39;;;;;;;30.85;16.63;;;;;;;;;;4994301;28;20060;-67
2022/01/26 11:11:06;;;;;;;34.50;17.50;;;;;;;;;;4993994;28;20050;-66
2022/01/26 11:13:39;;;;;;;33.45;17.73;;;;;;;;;;4993735;28;20085;-67
2022/01/26 11:16:09;;;;;;;32.28;16.58;;;;;;;;;;4994783;28;20455;-67
2022/01/26 11:18:48;;;;;;;32.55;17.60;;;;;;;;;;4994199;28;20065;-67
2022/01/26 11:21:27;;;;;;;37.35;17.42;;;;;;;;;;4994677;28;20050;-67
2022/01/26 11:24:09;;;;;;;32.90;17.73;;;;;;;;;;4994330;28;20050;-67
2022/01/26 11:26:38;;;;;;;32.60;16.52;;;;;;;;;;4993676;28;20050;-67
2022/01/26 11:29:16;;;;;;;31.23;16.17;;;;;;;;;;4994094;28;20061;-67
2022/01/26 11:31:44;;;;;;;27.67;16.25;;;;;;;;;;4993916;28;20058;-67
2022/01/26 11:34:11;;;;;;;31.05;16.23;;;;;;;;;;4994306;28;20061;-68
2022/01/26 11:36:42;;;;;;;29.80;16.42;;;;;;;;;;4993671;28;20062;-68
2022/01/26 11:42:18;;;;;;;34.13;18.52;;;;;;;;;;4994594;28;20073;-68
2022/01/26 11:45:06;;;;;;;31.50;16.45;;;;;;;;;;4994743;28;20054;-68
2022/01/26 11:47:34;;;;;;;40.08;19.65;;;;;;;;;;4993636;28;20407;-67
2022/01/26 11:50:12;;;;;;;49.72;22.00;;;;;;;;;;4995392;28;20526;-68
2022/01/26 11:52:40;;;;;;;50.25;22.58;;;;;;;;;;4994771;28;20608;-69
2022/01/26 11:55:25;;;;;;;40.17;19.85;;;;;;;;;;4993704;28;20058;-70
2022/01/26 11:57:54;;;;;;;37.58;19.23;;;;;;;;;;4997358;28;20479;-73
2022/01/26 12:00:50;;;;;;;38.03;19.98;;;;;;;;;;4994405;28;20137;-69
2022/01/26 12:03:22;;;;;;;37.65;19.00;;;;;;;;;;4995009;28;20427;-69
2022/01/26 12:05:50;;;;;;;40.03;20.10;;;;;;;;;;4993414;28;20054;-69
2022/01/26 12:08:29;;;;;;;35.97;18.05;;;;;;;;;;4992876;28;20054;-66
2022/01/26 12:10:56;;;;;;;39.20;19.88;;;;;;;;;;4992923;28;20058;-67
2022/01/26 12:13:27;;;;;;;37.53;19.58;;;;;;;;;;4992758;28;20113;-66
2022/01/26 12:15:59;;;;;;;39.38;21.40;;;;;;;;;;4992967;28;20157;-67
2022/01/26 12:18:32;;;;;;;37.55;18.80;;;;;;;;;;4992621;28;20054;-67
2022/01/26 12:32:30;;;;;;;40.20;20.17;;;;;;;;;;4992403;28;20234;-66
2022/01/26 12:35:04;;;;;;;40.67;20.33;;;;;;;;;;4994050;28;20054;-67
2022/01/26 12:37:49;;;;;;;36.90;19.27;;;;;;;;;;4992455;28;20054;-67
2022/01/26 12:43:10;;;;;;;42.05;21.02;;;;;;;;;;4991793;28;20520;-67
2022/01/26 12:45:37;;;;;;;47.78;21.67;;;;;;;;;;4992530;28;20321;-67
2022/01/26 12:48:09;;;;;;;44.80;21.50;;;;;;;;;;4992742;28;20610;-67
2022/01/26 12:50:38;;;;;;;40.42;21.20;;;;;;;;;;4992601;28;20054;-67
2022/01/26 12:53:05;;;;;;;41.50;20.33;;;;;;;;;;4992227;28;20141;-67
2022/01/26 12:55:34;;;;;;;40.92;21.25;;;;;;;;;;4991664;28;20054;-67
2022/01/26 12:58:02;;;;;;;39.70;19.73;;;;;;;;;;4991805;28;20116;-66
2022/01/26 13:00:42;;;;;;;38.75;20.50;;;;;;;;;;4992088;28;20073;-67
2022/01/26 13:03:16;;;;;;;39.95;19.98;;;;;;;;;;4992826;28;20053;-67
2022/01/26 13:05:44;;;;;;;38.33;20.80;;;;;;;;;;4993128;28;20476;-67
2022/01/26 13:08:14;;;;;;;38.42;19.08;;;;;;;;;;4992132;28;20504;-66
2022/01/26 13:10:41;;;;;;;38.08;20.30;;;;;;;;;;4992345;28;20456;-66
2022/01/26 13:13:13;;;;;;;40.78;19.80;;;;;;;;;;4992232;28;20169;-67
2022/01/26 13:15:47;;;;;;;37.38;20.38;;;;;;;;;;4992298;28;20109;-67
2022/01/26 13:18:43;;;;;;;36.35;19.38;;;;;;;;;;4992168;28;20427;-67
2022/01/26 13:21:39;;;;;;;36.38;18.83;;;;;;;;;;4992365;28;20058;-67
2022/01/26 13:24:17;;;;;;;41.65;20.73;;;;;;;;;;4992197;28;20451;-67
2022/01/26 13:27:01;;;;;;;40.30;19.48;;;;;;;;;;4992086;28;20156;-67
2022/01/26 13:29:39;;;;;;;38.65;19.80;;;;;;;;;;4992704;28;20058;-67
2022/01/26 13:32:39;;;;;;;38.25;19.40;;;;;;;;;;4992583;28;20081;-66
2022/01/26 13:35:29;;;;;;;36.25;18.35;;;;;;;;;;4990389;28;20077;-67
2022/01/26 13:38:13;;;;;;;37.50;19.63;;;;;;;;;;4990861;28;20105;-67
2022/01/26 13:40:56;;;;;;;41.35;20.30;;;;;;;;;;4991371;28;20054;-67
2022/01/26 13:44:02;;;;;;;38.03;19.77;;;;;;;;;;4991832;28;20059;-67
2022/01/26 13:52:19;;;;;;;39.50;22.05;;;;;;;;;;4951795;29;20059;-67
2022/01/26 14:00:11;;;;;;;43.17;21.52;;;;;;;;;;4975684;23;20314;-61
2022/01/26 14:02:38;;;;;;;36.42;20.30;;;;;;;;;;4990370;28;20050;-61
2022/01/26 14:05:06;;;;;;;38.42;20.27;;;;;;;;;;4990903;28;20463;-60
2022/01/26 14:07:35;;;;;;;35.28;19.30;;;;;;;;;;4990359;28;20053;-63
2022/01/26 14:10:03;;;;;;;37.90;19.63;;;;;;;;;;4990954;28;20054;-63
2022/01/26 14:12:34;;;;;;;38.10;19.83;;;;;;;;;;4990537;28;20513;-62
2022/01/26 14:15:06;;;;;;;32.80;18.13;;;;;;;;;;4990568;28;20144;-61
2022/01/26 14:17:41;;;;;;;35.83;18.98;;;;;;;;;;4990402;28;20562;-62
2022/01/26 14:20:16;;;;;;;35.42;18.30;;;;;;;;;;4990679;28;20132;-61
2022/01/26 14:23:13;;;;;;;36.88;19.15;;;;;;;;;;4990631;28;20058;-61
2022/01/26 14:25:41;;;;;;;37.75;18.52;;;;;;;;;;4990762;28;20145;-61
2022/01/26 14:28:11;;;;;;;41.53;21.30;;;;;;;;;;4990180;28;20555;-62
2022/01/26 14:30:47;;;;;;;42.28;21.15;;;;;;;;;;4990483;28;20144;-61
2022/01/26 14:55:52;;;;;;;37.65;20.58;;;;;;;;;;4990402;28;20058;-59
2022/01/26 15:08:41;;;;;;;42.65;20.48;;;;;;;;;;4990050;28;20112;-61
2022/01/26 15:10:02;;;;;;;45.45;20.98;;;;;;;;;;4993532;28;20545;-60
2022/01/26 15:34:33;;;;;;;;;;;;;;;;;;4993875;28;20136;-59
2022/01/26 15:42:42;;;;;;;42.85;20.25;;;;;;;;;;4993429;28;20104;-60
2022/01/26 15:50:47;;;;;;;48.22;21.55;;;;;;;;;;4993026;28;20054;-61
2022/01/26 15:53:24;;;;;;;39.28;19.45;;;;;;;;;;4993078;28;20050;-60
2022/01/26 15:58:51;;;;;;;46.85;22.35;;;;;;;;;;4992680;28;20052;-61
2022/01/26 16:04:28;;;;;;;45.13;20.13;;;;;;;;;;4993414;28;20077;-61
2022/01/26 16:07:03;;;;;;;46.28;21.10;;;;;;;;;;4992975;28;20057;-60
2022/01/26 16:26:44;;;;;;;43.50;21.67;;;;;;;;;;4992229;28;20101;-57
2022/01/26 17:25:01;;;;;;;43.30;18.52;;;;;;;;;;4991664;28;20570;-61
2022/01/26 17:47:09;;;;;;;36.95;17.63;;;;;;;;;;4990927;28;20053;-62
2022/01/26 18:04:07;;;;;;;46.50;20.13;;;;;;;;;;4982131;28;20089;-59
2022/01/26 18:04:08;;;;;;;47.33;20.88;;;;;;;;;;4981925;28;20149;-59
2022/01/26 18:15:35;;;;;;;45.78;19.52;;;;;;;;;;4986014;28;20507;-59
2022/01/26 18:22:22;;;;;;;48.65;20.35;;;;;;;;;;4990518;28;20419;-60
2022/01/26 18:26:32;;;;;;;45.55;19.45;;;;;;;;;;4991244;28;20145;-61
2022/01/26 18:31:59;;;;;;;48.47;22.30;;;;;;;;;;4990997;28;20073;-61
2022/01/26 18:50:53;;;;;;;42.05;19.13;;;;;;;;;;4994597;28;20061;-60
2022/01/26 18:53:20;;;;;;;53.58;22.63;;;;;;;;;;4994553;28;20129;-60
2022/01/26 18:55:47;;;;;;;53.35;22.42;;;;;;;;;;4994445;28;20050;-60
2022/01/26 18:58:14;;;;;;;52.33;23.08;;;;;;;;;;4994288;28;20462;-59
2022/01/26 19:00:44;;;;;;;58.55;23.90;;;;;;;;;;4994145;28;20051;-60
2022/01/26 19:03:13;;;;;;;53.05;22.23;;;;;;;;;;4976299;28;20105;-61
2022/01/26 19:05:40;;;;;;;50.03;21.45;;;;;;;;;;4975080;28;20050;-61
2022/01/26 19:08:07;;;;;;;51.95;21.42;;;;;;;;;;4986181;28;20046;-59
2022/01/26 19:10:34;;;;;;;59.92;22.15;;;;;;;;;;4983424;28;20492;-60
2022/01/26 19:13:01;;;;;;;48.95;20.95;;;;;;;;;;4994472;28;20124;-61
2022/01/26 19:15:31;;;;;;;52.25;23.10;;;;;;;;;;4994348;28;20053;-58
2022/01/26 19:18:02;;;;;;;50.28;21.45;;;;;;;;;;4995039;28;20113;-62
2022/01/26 19:20:53;;;;;;;52.08;21.05;;;;;;;;;;4993845;28;20057;-61
2022/01/26 19:23:34;;;;;;;52.92;22.52;;;;;;;;;;4993878;28;20542;-60
2022/01/26 19:26:05;;;;;;;51.28;22.95;;;;;;;;;;4994179;28;20471;-61
2022/01/26 19:28:36;;;;;;;48.42;20.40;;;;;;;;;;4987952;28;20055;-60
2022/01/26 19:45:11;;;;;;;46.22;20.10;;;;;;;;;;4949455;28;20487;-59
2022/01/26 19:53:06;;;;;;;52.70;20.58;;;;;;;;;;4993601;28;19948;-60
2022/01/26 19:55:33;;;;;;;53.17;21.10;;;;;;;;;;4993101;28;20058;-60
2022/01/26 19:58:01;;;;;;;56.40;24.50;;;;;;;;;;4992892;28;20081;-61
2022/01/26 20:00:28;;;;;;;51.28;22.58;;;;;;;;;;5004173;23;20065;-68
2022/01/26 20:02:55;;;;;;;55.65;21.85;;;;;;;;;;4992080;28;20050;-67
2022/01/26 20:05:23;;;;;;;51.63;21.45;;;;;;;;;;4993020;28;20054;-67